Date,TemperatureHighF,TemperatureAvgF,TemperatureLowF,DewpointHighF,DewpointAvgF,DewpointLowF,HumidityHigh,HumidityAvg,HumidityLow,PressureMaxIn,PressureMinIn,WindSpeedMaxMPH,WindSpeedAvgMPH,GustSpeedMaxMPH,PrecipitationSumIn
2013-1-1,51.0,45.2,41.1,44.4,36.6,3.4,99,77,18,30.11,29.94,11,4,18,0.07
2013-1-2,43.5,36.3,30.5,40.7,33.8,30.1,99,91,68,30.26,29.98,11,4,19,0.02
2013-1-3,41.1,31.4,27.5,36.7,27.7,19.3,99,87,57,30.37,30.16,10,2,20,0.00
2013-1-4,43.1,29.1,22.2,19.5,16.9,10.7,79,62,31,30.45,30.24,16,5,28,0.09
2013-1-5,45.3,32.6,24.8,27.5,17.7,13.2,77,56,28,30.49,30.28,12,5,20,0.14
2013-1-6,44.9,36.1,32.0,35.2,30.3,25.4,99,80,58,30.32,30.07,20,6,34,0.26
2013-1-7,45.5,34.7,26.0,28.5,25.0,22.1,86,69,46,30.50,30.26,13,4,19,0.04
2013-1-8,47.3,38.1,29.4,40.0,30.5,24.2,99,75,52,30.51,30.38,8,3,12,0.00
2013-1-9,59.5,51.4,40.2,52.1,47.7,40.0,99,88,64,30.50,30.36,11,3,20,0.00
2013-1-10,58.1,50.2,44.6,53.7,46.4,31.5,99,88,56,30.55,30.45,6,3,10,0.00
2013-1-11,57.9,45.9,38.1,55.3,44.9,33.4,99,97,66,30.46,30.15,10,3,15,0.17
2013-1-12,68.0,60.2,55.7,60.8,57.7,54.9,99,92,70,30.16,30.07,9,3,12,0.00
2013-1-13,61.5,55.9,53.7,58.8,55.3,53.5,99,98,86,30.16,30.08,13,5,19,0.01
2013-1-14,57.2,54.9,46.7,56.9,54.6,46.4,99,99,99,30.23,30.08,11,3,16,1.75
2013-1-15,48.7,40.9,35.0,48.4,40.7,34.8,99,99,99,30.26,30.14,8,2,10,1.43
2013-1-16,59.3,49.8,37.2,56.0,48.0,36.9,99,94,63,30.14,29.91,8,2,16,0.27
2013-1-17,49.6,37.9,26.0,49.3,37.6,25.8,99,99,99,30.33,29.99,10,2,16,0.78
2013-1-18,39.5,28.6,21.0,27.2,22.0,16.4,99,78,42,30.62,30.33,4,1,6,0.17
2013-1-19,53.9,38.5,28.0,28.5,18.5,-2.0,76,48,11,30.58,30.18,7,3,9,0.04
2013-1-20,47.6,40.5,36.5,26.8,20.8,4.2,62,47,21,30.19,30.06,17,7,27,0.05
2013-1-21,44.2,35.5,23.7,24.6,13.4,0.0,68,41,29,30.18,29.98,21,7,32,0.00
2013-1-22,24.8,18.7,13.4,1.0,-12.1,-24.0,42,25,11,30.36,30.09,23,6,30,0.04
2013-1-23,35.2,25.0,15.8,22.1,7.6,-12.0,59,47,26,30.41,30.03,15,5,26,0.06
2013-1-24,36.1,24.9,13.2,24.8,4.1,-9.0,67,41,22,30.62,29.91,33,8,54,24.44
2013-1-25,34.7,18.5,10.9,34.2,11.5,-3.0,99,75,48,30.64,30.07,18,6,27,0.04
2013-1-26,38.4,31.4,25.5,28.4,19.2,14.9,84,62,40,30.45,30.11,8,3,14,0.01
2013-1-27,31.4,25.8,19.5,24.1,19.4,14.3,91,77,57,30.66,30.45,10,3,11,0.00
2013-1-28,54.5,42.4,27.6,40.9,34.1,24.0,96,74,54,30.54,30.23,10,3,12,0.01
2013-1-29,67.2,57.5,50.9,54.6,43.5,34.0,99,62,38,30.24,30.05,9,4,14,0.00
2013-1-30,57.7,54.0,40.2,57.4,53.7,39.4,99,99,97,30.05,29.47,21,8,27,3.70
2013-1-31,40.2,28.5,23.9,39.4,18.6,11.7,98,67,51,30.07,29.53,21,7,31,0.07
2013-2-1,33.4,20.3,13.1,25.9,3.4,-7.0,92,49,27,30.50,29.93,23,7,46,1.97
2013-2-2,30.5,22.5,13.1,25.8,4.9,-27.0,92,50,10,30.51,30.09,9,3,11,0.00
2013-2-3,33.9,28.2,23.9,24.8,18.8,11.3,88,68,50,30.10,29.88,18,8,34,0.04
2013-2-4,42.0,31.8,20.8,15.6,11.4,7.4,65,43,26,30.21,29.99,9,3,15,0.00
2013-2-5,43.1,39.4,35.4,31.6,23.1,9.9,73,53,28,30.04,29.95,11,4,17,0.00
2013-2-6,53.0,41.9,33.2,26.6,12.4,-7.0,66,35,10,30.32,30.02,12,4,20,0.00
2013-2-7,41.0,35.6,33.0,36.1,25.1,5.7,99,69,23,30.39,30.12,8,2,10,0.34
2013-2-8,47.3,36.6,28.0,45.9,30.5,17.2,99,81,41,30.19,29.89,18,6,30,0.54
2013-2-9,53.4,33.8,26.9,16.8,4.1,-12.0,62,32,10,30.41,30.17,18,6,32,0.41
2013-2-10,44.7,37.2,32.5,34.7,12.2,3.7,94,39,20,30.51,30.25,11,5,15,0.13
2013-2-11,57.2,46.8,36.6,54.2,36.7,12.2,99,73,28,30.25,29.99,18,6,30,0.05
2013-2-12,55.9,41.3,33.6,30.4,13.2,-3.0,88,35,10,30.17,30.00,19,5,27,0.00
2013-2-13,39.9,34.8,30.7,39.6,33.0,25.4,99,93,77,30.08,29.69,11,3,21,0.26
2013-2-14,50.3,36.4,25.5,25.6,19.3,6.6,82,53,17,30.14,29.93,8,2,11,0.00
2013-2-15,51.8,38.7,29.3,31.2,24.9,14.3,81,60,25,30.17,29.98,11,4,21,0.00
2013-2-16,30.0,24.9,17.0,21.0,12.6,-1.0,71,59,42,30.11,29.92,18,6,30,0.00
2013-2-17,29.6,19.5,11.2,9.1,-1.9,-9.0,78,40,18,30.33,30.09,19,7,31,0.00
2013-2-18,45.5,33.8,22.8,16.8,6.1,-11.0,48,32,19,30.42,30.25,11,4,15,0.00
2013-2-19,42.9,34.7,28.0,41.2,20.7,0.3,98,61,25,30.26,29.89,14,6,26,0.00
2013-2-20,33.6,27.3,24.4,5.6,-3.4,-21.0,42,27,10,30.23,30.09,16,7,27,0.00
2013-2-21,44.0,33.0,24.4,21.1,-3.9,-21.0,58,21,10,30.34,30.18,10,4,15,0.00
2013-2-22,34.1,30.1,27.8,32.4,28.7,22.1,99,95,61,30.40,30.19,6,0,11,0.01
2013-2-23,51.2,43.6,29.3,45.7,40.0,29.0,99,87,57,30.23,29.87,7,2,9,0.15
2013-2-24,50.9,41.6,33.4,36.0,20.1,3.0,81,46,14,30.16,29.89,11,4,20,0.00
2013-2-25,43.3,31.1,26.2,21.3,16.9,12.1,69,56,37,30.30,30.09,9,3,12,0.00
2013-2-26,32.1,28.3,24.2,31.2,24.7,14.4,97,87,60,30.25,29.79,8,1,11,0.22
2013-3-1,29.6,29.1,28.5,21.9,21.5,21.0,74,73,72,30.02,30.00,6,2,9,0.00
2013-3-2,34.7,26.9,19.0,22.2,17.3,10.6,77,67,44,30.06,29.89,13,4,22,0.00
2013-3-3,29.8,21.3,16.7,10.6,7.9,5.3,69,56,40,30.11,29.97,15,8,25,0.00
2013-3-4,39.5,24.8,17.7,6.5,0.8,-15.0,59,41,10,30.22,30.10,15,7,24,0.00
2013-3-5,42.8,38.0,32.3,37.8,22.2,0.4,99,62,19,30.12,29.70,11,2,20,0.61
2013-3-6,32.3,25.6,21.7,27.1,17.2,12.3,82,70,55,30.22,29.71,23,10,36,0.01
2013-3-7,38.4,27.8,23.3,20.4,17.8,15.0,83,67,44,30.39,30.21,14,7,27,0.00
2013-3-8,44.2,31.5,23.0,16.8,13.9,8.8,68,51,26,30.42,30.27,13,6,21,0.00
2013-3-9,46.2,44.9,44.0,19.6,18.4,17.8,36,34,32,30.37,30.32,4,2,8,0.00
2013-3-10,58.1,48.1,41.1,25.9,21.7,17.5,48,36,22,30.35,30.17,11,5,18,0.00
2013-3-11,48.2,43.7,39.3,47.9,37.6,24.3,99,81,40,30.25,29.93,12,5,16,0.48
2013-3-12,51.8,44.5,35.6,48.4,35.0,20.7,99,73,33,30.10,29.81,15,5,27,0.61
2013-3-13,36.1,31.2,22.8,24.4,15.1,6.0,72,52,33,30.28,30.08,16,6,25,0.00
2013-3-14,43.7,28.2,17.9,9.7,3.5,-9.0,64,39,10,30.39,30.19,18,8,29,0.00
2013-3-15,58.4,44.7,29.6,33.7,19.6,5.5,65,39,16,30.29,29.91,12,5,20,0.00
2013-3-16,69.2,58.4,51.8,47.0,37.9,33.4,78,49,29,29.94,29.68,15,6,28,0.01
2013-3-17,59.1,49.2,32.7,46.2,41.6,32.4,99,77,58,30.24,29.92,9,3,14,0.00
2013-3-18,41.1,31.9,28.7,40.9,31.7,28.5,99,99,99,30.26,29.93,7,1,11,0.21
2013-3-19,51.6,42.8,33.9,44.6,18.1,-14.0,99,48,10,30.18,29.86,15,6,26,0.01
2013-3-20,43.3,33.6,27.3,24.9,-4.2,-18.0,86,22,10,30.20,29.87,13,5,21,0.00
2013-3-21,29.1,22.4,16.3,25.0,3.2,-3.0,87,44,28,30.12,29.91,17,6,25,0.00
2013-3-22,37.9,24.5,15.9,11.6,0.1,-16.0,54,37,10,30.17,30.03,10,3,13,0.00
2013-3-23,52.8,39.5,32.7,34.9,27.2,11.7,76,62,40,30.13,29.90,6,2,11,0.00
2013-3-24,40.4,33.7,28.7,33.6,30.3,24.6,99,88,53,30.01,29.63,14,2,19,0.47
2013-3-25,31.1,26.9,23.9,29.9,21.6,13.8,99,81,59,29.93,29.63,0,0,0,0.01
2013-3-26,33.2,27.7,24.2,18.1,15.9,13.0,68,61,45,30.25,29.92,16,7,23,0.00
2013-3-27,37.0,28.4,23.9,17.6,13.1,9.5,74,53,35,30.37,30.24,13,6,30,0.00
2013-3-28,43.5,32.7,25.1,15.1,11.2,7.7,55,42,23,30.41,30.25,11,5,21,0.00
2013-3-29,49.8,38.5,29.6,22.9,10.4,-7.0,56,35,10,30.44,30.22,10,3,15,0.00
2013-3-30,59.0,45.1,33.6,32.5,21.0,8.6,69,43,14,30.34,30.07,8,3,11,0.00
2013-3-31,55.9,47.5,42.4,48.1,41.3,32.2,99,81,55,30.13,29.85,11,4,17,0.22
2013-4-1,54.1,46.8,39.5,45.1,31.9,20.5,96,58,36,30.08,29.91,18,5,31,0.00
2013-4-2,50.7,38.1,29.3,25.6,10.9,-9.0,63,37,10,30.26,30.08,8,3,15,0.00
2013-4-3,54.6,36.8,27.8,6.3,0.1,-10.0,39,22,10,30.39,30.18,8,3,17,0.00
2013-4-4,38.3,32.3,28.9,31.5,15.6,-8.0,94,59,15,30.43,30.09,8,1,11,0.00
2013-4-5,53.6,40.3,32.3,36.0,30.5,21.5,99,74,30,30.17,29.96,12,3,20,0.08
2013-4-6,60.0,49.7,39.5,30.0,21.6,16.4,62,35,18,30.28,30.14,8,3,12,0.00
2013-4-7,63.6,51.9,41.7,36.4,31.8,26.3,65,47,28,30.29,30.08,9,4,15,0.00
2013-4-8,71.2,59.8,50.9,43.2,38.3,35.2,57,46,29,30.19,30.01,8,3,11,0.00
2013-4-9,77.7,67.0,54.5,47.5,41.9,32.4,66,43,20,30.23,30.04,8,3,13,0.00
2013-4-10,81.1,68.0,59.0,48.9,46.1,39.0,66,48,23,30.14,29.93,9,2,12,0.00
2013-4-11,71.2,64.4,57.3,59.9,49.5,43.2,99,60,37,30.02,29.77,13,4,21,0.15
2013-4-12,66.2,57.6,47.6,60.8,46.2,24.8,99,71,24,29.93,29.69,17,6,27,0.79
2013-4-13,65.4,55.2,44.2,31.3,21.5,5.4,57,30,10,30.10,29.90,15,5,25,0.00
2013-4-14,68.0,57.8,49.1,42.6,25.9,13.7,69,31,15,30.14,30.02,13,5,17,0.00
2013-4-15,52.3,49.8,47.3,51.5,48.9,42.0,99,97,68,30.30,30.08,10,3,14,0.27
2013-4-16,71.0,59.0,51.0,61.2,53.7,50.8,99,84,59,30.35,30.18,8,3,10,0.02
2013-4-17,69.0,60.4,55.7,56.4,53.7,51.4,93,79,59,30.33,30.14,8,3,17,0.08
2013-4-18,67.8,61.4,56.4,59.5,54.1,48.7,99,78,54,30.21,30.01,13,6,18,0.07
2013-4-19,60.0,55.6,40.2,59.7,54.2,30.9,99,95,68,30.02,29.76,17,8,26,1.10
2013-4-20,56.1,42.6,32.0,30.9,19.7,13.1,70,42,19,30.39,29.99,15,5,25,0.00
2013-4-21,54.1,44.3,35.2,28.6,20.6,14.0,59,39,24,30.54,30.38,8,3,12,0.00
2013-4-22,56.4,44.8,32.9,30.2,23.7,12.2,84,47,23,30.56,30.27,7,3,10,0.00
2013-4-23,66.5,51.3,35.9,42.0,32.6,19.8,75,51,25,30.39,30.08,8,3,12,0.00
2013-4-24,66.7,56.5,49.2,51.9,44.8,38.0,88,66,46,30.20,29.97,9,3,15,0.01
2013-4-25,60.8,45.4,33.4,43.8,25.5,-2.0,82,53,10,30.39,30.15,10,3,17,0.00
2013-4-26,62.7,51.9,41.9,25.5,21.4,15.5,43,31,16,30.49,30.34,9,4,13,0.00
2013-4-27,54.5,50.9,46.4,48.1,37.8,22.4,99,65,29,30.43,30.33,8,2,11,0.09
2013-4-28,50.0,46.4,44.2,49.7,46.2,43.9,99,99,99,30.34,30.11,11,4,16,0.61
2013-4-29,64.9,54.6,47.8,54.5,50.6,39.6,99,88,46,30.15,29.99,8,2,14,0.05
2013-4-30,69.0,57.3,52.3,56.6,52.0,45.8,99,84,52,30.28,30.04,9,2,12,0.00
2013-5-1,60.4,52.9,48.9,51.4,49.4,46.0,99,89,64,30.40,30.27,12,3,19,0.04
2013-5-2,52.7,49.4,46.5,52.4,48.9,45.3,99,98,92,30.42,30.33,8,3,13,0.11
2013-5-3,56.3,49.9,43.8,48.6,44.0,36.3,99,82,57,30.36,30.20,11,4,15,0.04
2013-5-4,51.8,43.4,38.4,44.8,39.1,34.5,99,86,58,30.26,30.08,15,5,23,0.05
2013-5-5,47.8,42.6,39.0,47.0,41.2,33.9,99,95,80,30.18,29.97,17,6,30,1.43
2013-5-6,54.1,49.8,47.4,53.3,43.8,29.6,97,82,48,29.99,29.88,23,5,34,1.82
2013-5-7,64.2,49.0,45.5,45.9,35.9,0.0,91,64,10,30.04,29.86,6,2,11,0.32
2013-5-8,63.8,51.8,44.9,52.3,41.3,33.9,96,68,39,30.10,29.94,11,2,17,0.12
2013-5-9,73.5,60.8,49.4,49.7,45.0,39.8,91,59,32,30.15,30.01,10,3,16,0.01
2013-5-10,76.1,64.9,57.9,55.1,49.1,43.8,85,58,34,30.16,29.97,9,3,15,0.01
2013-5-11,62.7,60.1,57.2,53.1,50.3,48.2,77,70,61,30.01,29.94,6,2,9,0.00
2013-5-17,60.2,59.2,59.0,56.5,56.2,55.9,91,90,86,30.19,30.18,2,0,2,0.00
2013-5-18,62.6,59.9,58.4,60.3,55.6,51.3,99,86,72,30.22,30.13,9,2,12,0.79
2013-5-19,65.6,60.7,59.1,65.3,59.0,54.8,99,94,85,30.18,30.08,5,2,10,1.59
2013-6-8,77.0,69.8,64.0,64.2,62.2,60.8,99,78,62,30.17,29.97,2,1,4,0.20
2013-6-9,81.3,67.2,60.6,69.9,62.3,59.4,99,86,53,30.23,30.08,4,1,8,0.01
2013-6-10,71.4,64.9,61.7,67.8,60.9,49.7,99,89,48,30.15,29.91,8,2,16,0.00
2013-6-11,75.2,65.6,58.4,62.0,56.7,52.7,98,75,48,30.10,29.98,7,2,14,0.00
2013-6-12,84.9,74.1,61.8,65.7,61.2,55.8,82,65,42,30.09,29.91,8,3,15,0.00
2013-6-13,79.8,70.5,59.9,61.7,58.6,49.7,94,67,47,29.95,29.71,11,4,19,0.00
2013-6-14,72.3,63.1,56.3,50.2,47.8,42.0,78,59,35,30.16,29.88,8,3,15,0.00
2013-6-15,58.1,56.5,53.6,50.1,49.2,48.6,87,77,72,30.23,30.14,3,2,4,0.00
2013-6-25,70.8,68.9,66.7,63.7,62.8,62.2,90,81,75,30.12,30.08,2,1,3,0.00
2013-6-26,80.9,70.2,63.8,63.9,61.5,59.6,93,76,50,30.12,29.96,5,2,10,0.00
2013-7-12,62.7,62.3,61.8,62.4,62.0,61.5,99,99,99,30.10,30.04,4,2,8,0.02
2013-7-13,71.2,63.9,60.0,67.1,63.1,59.7,99,97,83,30.18,30.09,4,2,8,0.09
2013-7-14,73.7,67.1,64.4,72.9,66.4,64.1,99,98,82,30.36,30.15,8,3,13,1.30
2013-7-15,66.9,66.1,65.3,66.6,65.8,65.0,99,99,99,30.38,30.34,3,2,5,0.00
2013-7-20,80.7,73.0,68.0,70.3,68.1,64.3,99,86,60,30.05,29.94,13,1,100,0.09
2013-7-21,82.2,70.2,65.6,71.2,66.3,62.7,99,88,54,30.04,29.91,4,2,8,0.57
2013-7-22,114.4,68.9,64.2,99.9,66.7,63.9,99,94,69,30.03,29.70,6,2,10,0.35
2013-7-23,79.5,70.0,63.8,65.0,62.6,58.5,99,79,53,29.90,29.76,5,2,10,0.01
2013-7-24,82.4,71.2,65.1,65.5,62.4,57.2,99,76,47,29.92,29.76,4,2,9,0.00
2013-7-25,76.8,67.0,60.4,66.0,62.0,59.3,99,85,60,30.13,29.92,3,1,5,0.33
2013-7-26,76.1,65.0,50.3,66.8,62.3,50.0,99,92,68,30.22,30.02,3,1,5,0.09
2013-7-27,67.8,64.0,62.2,67.5,63.7,61.9,99,99,99,30.08,29.95,4,1,5,5.20
2013-7-28,74.8,66.4,39.5,68.2,61.3,39.3,99,86,50,30.18,29.93,4,1,9,1.71
2013-7-29,64.0,60.3,58.2,53.7,51.8,48.4,81,74,57,30.27,30.10,3,2,7,0.06
2013-7-30,73.0,64.4,38.8,63.1,56.0,32.2,95,75,54,30.43,30.18,49,1,49,0.00
2013-7-31,65.6,62.6,59.1,65.3,61.8,56.3,99,97,79,30.25,30.04,3,1,7,0.17
2013-8-3,65.6,65.5,65.4,63.2,62.7,62.3,92,91,89,30.04,30.03,1,0,2,0.00
2013-8-4,73.4,69.6,62.9,64.7,55.9,52.4,94,63,48,30.11,29.98,4,2,8,0.13
2013-8-5,62.9,60.7,57.7,57.8,56.4,54.9,99,86,77,30.15,30.11,2,0,3,0.00
2013-8-7,66.5,66.3,66.0,66.2,66.0,65.7,99,99,99,30.10,30.06,2,1,5,0.26
2013-8-8,73.9,68.0,65.4,73.6,67.7,65.1,99,99,99,30.10,30.02,3,1,4,0.05
2013-8-9,80.9,71.9,68.1,73.5,69.2,66.5,99,92,62,30.11,29.99,3,2,5,0.06
2013-8-10,82.2,70.9,64.7,70.7,67.2,63.1,99,89,56,30.18,30.03,8,2,15,0.24
2013-8-11,79.8,71.5,65.1,68.6,65.3,63.3,99,82,59,30.18,30.03,4,2,7,0.00
2013-8-12,81.3,73.3,64.5,69.8,65.9,61.7,99,79,54,30.10,29.97,3,1,9,0.04
2013-8-13,75.3,68.3,63.6,69.3,64.7,61.4,99,89,69,30.02,29.83,6,2,11,0.22
2013-8-14,72.6,62.6,55.5,61.9,52.3,42.9,96,71,40,30.19,29.94,4,2,9,0.00
2013-8-15,64.0,55.8,50.3,55.1,50.6,46.3,99,83,65,30.24,30.11,4,1,6,0.00
2013-8-16,69.0,58.3,50.0,57.5,53.5,49.3,99,86,54,30.26,30.10,2,1,4,0.00
2013-8-17,63.5,58.0,52.3,59.9,55.6,50.2,99,92,68,30.29,30.19,3,1,7,0.22
2013-8-18,69.4,62.4,59.0,68.1,62.1,58.7,99,99,93,30.27,30.16,2,0,5,0.94
2013-8-19,120.9,64.5,60.4,99.9,64.0,60.1,99,99,97,30.25,29.83,103,1,103,0.32
2013-8-20,75.2,67.7,60.4,71.1,65.2,60.1,99,92,74,30.25,30.13,49,2,49,0.01
2013-8-21,65.3,65.2,65.1,65.0,64.9,64.8,99,99,99,30.26,30.25,2,1,2,0.00
2013-8-22,78.6,70.3,-13.0,64.2,59.5,-25.0,94,70,45,30.78,30.02,4,2,6,0.09
2013-8-23,74.8,68.4,63.6,64.2,62.0,60.1,99,81,61,30.16,29.98,2,1,6,0.04
2013-8-24,74.1,64.4,57.0,63.7,53.7,42.1,99,72,38,30.39,30.16,4,1,8,0.00
2013-8-25,72.6,62.5,55.4,58.4,52.8,46.4,96,72,46,30.48,30.30,2,1,4,0.00
2013-8-26,78.2,61.5,54.8,56.3,54.9,52.7,99,82,42,30.42,30.14,3,1,4,0.00
2013-8-29,86.0,73.9,67.6,70.0,63.6,57.1,99,73,40,30.07,29.87,8,3,16,0.01
2013-8-30,75.2,68.6,63.6,69.9,66.3,63.3,99,93,75,30.12,29.97,3,1,6,0.31
2013-8-31,81.5,69.7,66.3,70.0,67.0,62.2,99,92,63,30.01,29.88,4,1,6,0.19
2013-9-1,80.4,68.6,63.3,69.3,65.5,62.1,99,90,64,29.97,29.85,4,1,10,0.35
2013-9-2,79.1,70.1,53.6,66.3,63.1,38.2,99,81,50,30.06,29.82,5,2,8,0.00
2013-9-3,77.5,68.7,61.3,66.4,59.5,52.2,99,75,42,30.07,29.85,6,2,11,0.00
2013-9-4,78.0,66.0,58.6,61.4,55.7,50.9,85,70,54,30.19,30.04,4,2,7,0.00
2013-9-5,82.4,67.6,55.9,54.1,48.8,35.6,85,55,19,30.22,30.05,4,2,8,0.00
2013-9-6,74.1,63.8,58.4,61.0,57.2,53.6,97,80,54,30.27,30.12,4,2,7,0.00
2013-9-7,76.8,64.7,56.1,62.3,58.2,54.2,99,81,56,30.22,30.01,4,1,6,0.00
2013-9-8,78.4,68.8,62.4,61.7,59.6,55.2,91,73,47,30.07,29.94,4,1,6,0.00
2013-9-9,67.1,64.5,61.7,64.5,62.1,60.3,99,92,80,30.15,30.07,2,1,4,0.00
2013-9-16,57.5,57.3,56.8,54.4,54.1,53.7,90,89,87,30.28,30.26,3,2,6,0.00
2013-9-17,61.7,55.4,50.7,54.2,48.5,44.7,94,78,59,30.39,30.28,3,1,7,0.00
2013-9-18,62.2,53.6,49.1,56.0,50.6,46.2,99,90,67,30.38,30.24,4,1,5,0.00
2013-9-19,67.6,61.0,55.4,64.0,59.5,55.1,99,95,76,30.26,30.12,3,1,5,0.02
2013-9-20,75.3,66.3,60.8,66.2,61.8,57.3,99,87,56,30.15,29.94,4,1,8,0.00
2013-9-21,63.5,60.6,54.3,63.2,60.3,54.0,99,99,99,30.00,29.76,5,2,14,0.61
2013-9-22,68.5,56.9,50.0,54.0,49.8,45.3,99,79,45,30.03,29.81,5,2,9,0.01
2013-9-23,64.9,54.4,47.6,55.1,50.1,45.3,99,87,52,30.15,30.02,3,1,5,0.00
2013-9-24,71.2,59.2,48.9,60.1,54.9,48.6,99,87,58,30.19,29.96,2,1,4,0.00
2013-9-25,57.7,55.9,52.5,57.4,55.6,52.2,99,99,99,30.02,29.93,2,0,3,0.17
2013-9-26,68.9,56.9,51.6,61.0,51.8,41.6,99,85,45,30.14,29.96,3,1,6,0.00
2013-9-27,68.5,57.4,49.8,54.0,50.3,47.2,99,78,53,30.27,30.09,3,1,4,0.00
2013-9-28,62.7,55.5,51.2,54.7,50.2,46.9,99,83,62,30.32,30.19,3,1,5,0.00
2013-9-29,64.2,55.4,50.0,55.8,50.9,44.6,99,86,63,30.27,30.06,3,1,4,0.00
2013-9-30,63.5,57.5,52.3,59.1,53.8,51.4,99,88,70,30.16,30.05,2,0,4,0.00
2013-10-1,72.6,60.2,51.6,56.7,52.2,47.1,99,77,43,30.21,30.05,3,1,4,0.00
2013-10-2,74.4,62.9,55.5,55.7,51.9,46.2,99,70,38,30.22,30.06,3,1,6,0.00
2013-10-3,73.0,64.3,57.5,58.4,53.8,51.0,87,69,53,30.21,30.07,2,1,4,0.00
2013-10-4,77.7,65.6,56.6,61.2,56.1,52.5,99,74,47,30.22,30.06,3,1,6,0.00
2013-10-5,77.9,66.6,59.3,60.3,57.6,53.1,99,75,47,30.22,30.03,3,1,4,0.00
2013-10-6,71.0,66.0,61.5,60.1,57.7,56.2,94,75,60,30.10,29.92,4,1,8,0.00
2013-10-7,63.1,57.7,49.2,62.3,52.2,40.0,99,83,57,30.13,29.85,8,2,11,1.94
2013-10-8,61.8,50.0,41.9,42.2,38.8,34.2,89,67,42,30.34,30.13,5,2,9,0.00
2013-10-9,68.5,50.8,40.6,41.5,37.3,26.9,99,64,25,30.36,30.11,4,2,6,0.00
2013-10-10,64.4,54.4,45.1,51.9,41.1,27.6,81,62,39,30.25,30.05,5,3,11,0.00
2013-10-11,68.9,59.4,53.0,48.4,43.3,36.2,80,57,34,30.07,29.94,8,3,13,0.00
2013-10-12,63.6,58.4,53.9,57.6,53.0,44.2,99,83,62,30.16,30.03,3,1,8,0.00
2013-10-13,65.8,59.2,57.2,61.7,58.1,55.9,99,96,76,30.29,30.16,2,0,5,0.06
2013-10-14,62.6,57.1,53.6,60.6,56.5,53.3,99,98,84,30.32,30.20,3,0,5,0.09
2013-10-15,64.5,55.1,48.7,55.0,49.6,44.2,99,83,57,30.29,30.08,2,1,4,0.00
2013-10-16,63.8,56.2,49.2,55.0,49.3,45.9,96,78,60,30.18,29.97,2,1,4,0.00
2013-10-18,53.9,53.2,52.8,52.7,52.4,52.0,98,97,95,30.04,30.02,2,0,3,0.00
2013-10-19,57.7,52.9,47.6,56.0,47.1,30.3,99,83,37,30.04,29.85,5,1,14,0.00
2013-10-20,57.5,46.0,35.7,34.0,29.2,18.8,81,54,30,30.19,30.01,8,2,10,0.01
2013-10-21,57.7,49.8,42.9,46.9,38.1,29.6,87,65,53,30.21,30.03,4,1,6,0.00
2013-10-22,61.5,54.0,50.0,46.9,37.4,29.1,87,55,31,30.06,29.83,8,2,14,0.01
2013-10-23,50.3,42.2,32.3,40.2,27.8,17.0,86,58,31,30.14,29.79,11,4,19,0.01
2013-10-24,43.3,36.2,30.5,32.6,21.8,17.2,97,56,40,30.27,30.12,11,3,16,0.00
2013-10-25,37.7,31.3,26.2,33.1,20.4,14.0,99,66,39,30.49,30.27,11,3,15,0.01
2013-10-26,49.8,38.0,24.0,28.2,17.0,8.8,77,45,22,30.49,30.09,6,1,10,0.00
2013-10-27,60.4,49.4,41.3,38.4,27.2,14.2,68,44,17,30.19,30.03,13,3,20,0.00
2013-10-28,56.1,52.1,49.6,49.0,44.0,38.3,91,74,64,30.33,30.16,4,1,9,0.00
2013-10-29,63.8,54.9,47.8,49.7,45.2,40.8,99,73,43,30.39,30.24,4,2,8,0.00
2013-10-30,68.1,59.1,52.1,50.7,46.3,43.3,85,64,41,30.33,30.14,6,1,11,0.02
2013-10-31,59.1,56.4,55.0,56.7,51.3,47.7,99,84,70,30.22,29.88,8,2,16,0.01
2013-11-1,70.8,58.9,52.7,57.9,50.1,33.9,99,76,32,29.89,29.63,12,4,20,0.05
2013-11-2,56.1,49.1,42.0,37.8,27.3,15.6,62,43,23,30.05,29.77,11,6,20,0.00
2013-11-3,52.3,41.7,35.7,26.6,21.2,14.9,60,45,23,30.47,30.04,11,4,18,0.00
2013-11-4,48.2,39.4,33.8,21.8,14.6,2.9,60,38,16,30.64,30.47,5,2,8,0.00
2013-11-5,51.6,40.6,29.4,43.7,26.0,-5.0,99,60,10,30.67,30.47,6,2,9,0.02
2013-11-6,58.1,50.1,43.7,51.1,45.5,40.6,99,86,57,30.51,30.17,5,2,8,0.02
2013-11-7,57.7,47.1,33.4,50.4,35.6,18.6,95,66,43,30.25,30.00,16,4,26,0.01
2013-11-8,44.7,35.8,30.7,18.8,7.9,-10.0,55,34,10,30.41,30.25,11,4,22,0.00
2013-11-9,48.5,44.4,35.7,12.2,6.1,-6.0,31,21,10,30.42,30.26,6,3,9,0.00
2013-11-10,57.5,46.6,38.4,24.7,8.8,-7.0,45,24,10,30.35,30.12,17,6,23,0.05
2013-11-11,44.9,36.1,34.3,1.7,-3.7,-15.0,24,18,10,30.42,30.22,8,4,9,0.00
2013-11-12,48.5,32.9,18.8,26.5,8.9,-5.0,56,40,10,30.62,30.07,16,6,27,0.00
2013-11-13,34.5,23.8,18.1,4.6,-2.7,-17.0,54,34,10,30.65,30.54,12,5,20,0.00
2013-11-14,40.8,35.2,28.9,-7.0,-10.1,-19.0,18,13,10,30.56,30.38,3,1,6,0.00
2013-11-15,53.6,45.9,42.6,45.9,36.4,-3.0,99,78,10,30.33,30.25,6,2,11,0.12
2013-11-16,51.0,47.6,46.2,50.8,47.4,45.9,99,99,99,30.32,30.24,6,2,10,0.00
2013-11-17,55.5,51.3,49.2,55.3,51.0,49.0,99,99,99,30.26,29.91,10,3,14,0.22
2013-11-18,59.3,51.5,38.4,56.5,28.4,0.0,99,49,10,30.10,29.85,15,7,34,0.02
2013-11-19,48.2,36.5,32.0,12.9,5.3,-9.0,41,28,10,30.38,30.10,17,4,25,0.00
2013-11-20,44.0,34.1,26.0,19.7,15.5,7.5,70,48,23,30.58,30.37,11,3,15,0.00
2013-11-21,51.8,41.3,31.8,47.0,36.6,19.1,99,84,57,30.61,30.41,5,2,9,0.02
2013-11-22,62.7,52.8,45.3,58.8,52.2,45.0,99,98,74,30.46,30.16,7,2,11,0.01
2013-11-23,51.6,40.7,24.6,51.3,26.1,-17.0,99,64,10,30.35,30.15,17,6,27,0.00
2013-11-24,24.4,18.3,14.7,6.1,-8.3,-28.0,52,33,10,30.66,30.35,13,5,23,0.00
2013-11-25,28.2,22.8,16.5,14.9,-14.4,-29.0,65,19,10,30.66,30.44,7,3,9,0.00
2013-11-26,41.7,37.1,24.8,41.4,36.5,15.0,99,98,66,30.44,29.69,8,3,15,2.39
2013-11-27,41.3,25.6,15.8,41.0,17.1,0.4,99,72,43,30.30,29.67,21,10,35,0.75
2013-11-28,37.7,23.3,14.1,5.6,-4.6,-25.0,64,32,10,30.54,30.31,11,4,15,0.00
2013-11-29,43.1,32.8,28.2,2.6,-13.1,-21.0,22,13,10,30.60,30.53,7,3,9,0.00
2013-12-22,54.8,53.2,51.2,54.5,52.9,50.9,99,99,99,30.10,30.03,12,4,16,0.89
2013-12-23,55.7,44.5,28.5,55.4,43.5,23.2,99,96,80,30.33,30.00,12,6,21,0.35
2013-12-24,30.3,24.3,15.4,23.8,10.3,-6.0,92,58,31,30.59,30.32,14,5,21,0.00
2013-12-25,22.6,16.6,12.9,1.6,-8.0,-28.0,60,35,10,30.62,30.47,5,2,8,0.00
2013-12-26,42.2,30.4,21.5,11.1,-0.4,-19.0,44,28,10,30.48,30.29,11,4,16,0.00
2013-12-27,31.6,27.5,26.4,9.2,3.1,-20.0,47,36,10,30.54,30.45,4,2,6,0.00
2013-12-28,50.3,43.5,37.2,42.4,32.6,-5.0,99,73,10,30.28,30.21,8,3,11,0.14
2013-12-29,51.0,39.9,33.4,45.4,35.0,23.5,99,84,56,30.21,29.74,13,5,25,0.32
2013-12-30,39.7,36.3,32.0,31.6,27.3,3.7,80,70,28,30.22,30.00,14,5,21,0.00
2013-12-31,37.0,30.0,26.7,9.4,0.5,-18.0,42,29,10,30.49,30.19,15,6,26,0.00
2014-1-1,40.1,34.8,27.6,16.9,2.9,-17.0,54,28,10,30.47,30.21,8,3,12,0.00
2014-1-2,43.7,35.0,15.9,41.4,18.4,-11.0,99,58,11,30.21,29.68,16,4,29,0.07